Time;durP1;ratioP1;P1;durP2;ratioP2;P2;SDS_P1;SDS_P2;PMS_P1;PMS_P2;Temp;Humidity;BMP_temperature;BMP_pressure;BME280_temperature;BME280_humidity;BME280_pressure;Samples;Min_cycle;Max_cycle;Signal;HPM_P1;HPM_P2
2022/03/19 00:00:43;;;;;;;17.83;5.22;;;;;;;8.61;100.00;103721.28;5095596;28;20052;-92
2022/03/19 00:03:10;;;;;;;11.73;3.58;;;;;;;8.69;100.00;103724.88;5076912;28;20072;-91
2022/03/19 00:05:37;;;;;;;15.70;4.47;;;;;;;8.94;100.00;103762.78;5075736;28;20501;-91
2022/03/19 00:08:04;;;;;;;11.23;3.65;;;;;;;8.96;100.00;103750.66;5075092;28;20456;-93
2022/03/19 00:10:31;;;;;;;21.38;4.72;;;;;;;8.68;100.00;103749.28;5075457;28;20056;-93
2022/03/19 00:12:59;;;;;;;24.48;5.18;;;;;;;8.74;100.00;103762.44;5075248;28;20136;-92
2022/03/19 00:15:26;;;;;;;22.00;5.70;;;;;;;8.68;100.00;103737.09;5075068;28;20135;-92
2022/03/19 00:17:54;;;;;;;12.75;4.03;;;;;;;8.96;100.00;103779.41;5076437;28;20048;-92
2022/03/19 00:20:21;;;;;;;18.27;4.43;;;;;;;8.79;100.00;103770.38;5075443;28;20136;-92
2022/03/19 00:22:48;;;;;;;13.70;4.03;;;;;;;8.70;100.00;103744.94;5074680;28;20059;-89
2022/03/19 00:25:17;;;;;;;16.38;3.95;;;;;;;9.02;100.00;103789.06;5073961;28;20047;-92
2022/03/19 00:27:44;;;;;;;11.48;3.40;;;;;;;8.71;100.00;103744.06;5075102;28;20130;-92
2022/03/19 00:30:11;;;;;;;20.60;3.80;;;;;;;8.82;100.00;103778.25;5075246;28;20476;-92
2022/03/19 00:32:38;;;;;;;18.48;4.90;;;;;;;8.83;100.00;103788.72;5074722;28;20063;-92
2022/03/19 00:35:07;;;;;;;20.85;4.45;;;;;;;8.61;100.00;103750.00;5074795;28;20079;-92
2022/03/19 00:37:53;;;;;;;16.83;4.53;;;;;;;8.83;100.00;103796.56;5075057;28;20052;-92
2022/03/19 00:40:24;;;;;;;19.40;3.65;;;;;;;8.77;100.00;103777.31;5074908;28;20082;-92
2022/03/19 00:42:51;;;;;;;13.80;3.80;;;;;;;8.86;100.00;103767.00;5075174;28;20064;-91
2022/03/19 00:45:18;;;;;;;19.48;4.88;;;;;;;8.84;100.00;103755.66;5074432;28;20076;-92
2022/03/19 00:47:45;;;;;;;24.70;5.20;;;;;;;8.36;100.00;103731.22;5073576;28;20456;-92
2022/03/19 00:50:12;;;;;;;19.20;4.47;;;;;;;8.55;100.00;103762.09;5073438;28;20544;-92
2022/03/19 00:52:39;;;;;;;12.27;3.20;;;;;;;8.79;100.00;103752.06;5070608;28;20055;-91
2022/03/19 00:55:07;;;;;;;20.52;3.97;;;;;;;8.65;100.00;103757.91;5070817;28;20578;-92
2022/03/19 00:57:42;;;;;;;17.70;3.78;;;;;;;8.90;100.00;103774.03;5070493;28;20156;-93
2022/03/19 01:00:11;;;;;;;19.38;3.95;;;;;;;8.87;100.00;103779.22;5054294;28;20388;-92
2022/03/19 01:02:40;;;;;;;12.18;4.53;;;;;;;9.04;100.00;103793.47;5066695;28;20048;-92
2022/03/19 01:05:08;;;;;;;15.20;4.00;;;;;;;8.76;100.00;103794.69;5074235;28;20052;-92
2022/03/19 01:07:50;;;;;;;12.68;3.03;;;;;;;8.90;100.00;103784.50;5073807;28;20562;-92
2022/03/19 01:10:25;;;;;;;13.18;3.10;;;;;;;8.86;100.00;103794.00;5075719;28;20139;-91
2022/03/19 01:12:53;;;;;;;12.55;3.58;;;;;;;8.61;100.00;103742.19;5072398;28;20057;-92
2022/03/19 01:15:21;;;;;;;13.18;2.92;;;;;;;8.81;100.00;103779.09;5053572;28;20604;-87
2022/03/19 01:17:48;;;;;;;11.10;2.92;;;;;;;8.38;100.00;103739.09;5052577;28;20049;-92
2022/03/19 01:20:16;;;;;;;11.75;3.33;;;;;;;8.55;100.00;103779.47;5053633;28;20052;-92
2022/03/19 01:22:46;;;;;;;10.90;3.42;;;;;;;8.21;100.00;103749.19;5067022;28;20106;-92
2022/03/19 01:25:14;;;;;;;12.80;3.20;;;;;;;8.46;100.00;103781.91;5073521;28;20135;-92
2022/03/19 01:27:43;;;;;;;22.63;4.75;;;;;;;8.01;100.00;103738.34;5074121;28;20144;-92
2022/03/19 01:30:12;;;;;;;16.58;4.07;;;;;;;8.31;100.00;103785.06;5074269;28;20052;-93
2022/03/19 01:32:39;;;;;;;14.18;4.78;;;;;;;7.85;100.00;103792.78;5070896;28;20056;-92
2022/03/19 01:35:08;;;;;;;14.65;3.65;;;;;;;8.01;100.00;103787.91;5053775;28;20053;-92
2022/03/19 01:37:35;;;;;;;15.65;3.45;;;;;;;8.27;100.00;103791.06;5053850;28;20053;-92
2022/03/19 01:40:02;;;;;;;29.20;7.00;;;;;;;7.92;100.00;103773.81;5053992;28;20045;-92
2022/03/19 01:42:33;;;;;;;12.73;3.40;;;;;;;8.03;100.00;103770.56;5066167;28;20063;-92
2022/03/19 01:45:00;;;;;;;19.45;4.20;;;;;;;7.65;100.00;103732.34;5074569;28;20090;-92
2022/03/19 01:47:29;;;;;;;19.98;4.22;;;;;;;7.92;100.00;103780.75;5073871;28;20056;-92
2022/03/19 01:49:57;;;;;;;12.90;3.55;;;;;;;7.96;100.00;103779.97;5073868;28;20049;-92
2022/03/19 01:52:28;;;;;;;13.48;2.92;;;;;;;7.91;100.00;103786.81;5073731;28;20040;-92
2022/03/19 01:54:55;;;;;;;14.52;3.08;;;;;;;7.67;100.00;103754.13;5073860;28;20044;-92
2022/03/19 01:57:26;;;;;;;15.52;3.92;;;;;;;7.55;100.00;103746.03;5073414;28;20052;-90
2022/03/19 01:59:56;;;;;;;11.77;2.92;;;;;;;7.95;100.00;103796.47;5071554;28;20056;-91
2022/03/19 02:02:25;;;;;;;12.63;4.03;;;;;;;7.47;100.00;103751.06;5071033;28;20084;-92
2022/03/19 02:04:53;;;;;;;17.08;4.70;;;;;;;7.73;100.00;103787.28;5072185;28;20441;-92
2022/03/19 02:07:20;;;;;;;14.73;3.30;;;;;;;7.65;100.00;103741.88;5072727;28;20405;-92
2022/03/19 02:09:47;;;;;;;13.35;3.05;;;;;;;7.67;100.00;103769.78;5070370;28;20053;-92
2022/03/19 02:12:13;;;;;;;18.35;3.90;;;;;;;7.41;100.00;103772.63;5074459;28;20367;-92
2022/03/19 02:14:40;;;;;;;11.80;3.17;;;;;;;7.22;100.00;103728.72;5072285;28;20053;-92
2022/03/19 02:17:09;;;;;;;17.95;3.25;;;;;;;7.47;100.00;103787.56;5072838;28;20052;-92
2022/03/19 02:19:48;;;;;;;19.40;3.83;;;;;;;7.37;100.00;103746.47;5074040;28;20498;-92
2022/03/19 02:22:16;;;;;;;12.68;3.20;;;;;;;7.35;100.00;103782.91;5072407;28;20157;-92
2022/03/19 02:27:29;;;;;;;24.70;6.97;;;;;;;7.04;100.00;103763.88;5074983;28;20053;-92
2022/03/19 02:29:57;;;;;;;14.73;3.50;;;;;;;6.90;100.00;103748.75;5073443;28;20126;-92
2022/03/19 02:32:25;;;;;;;22.77;6.20;;;;;;;6.81;100.00;103732.03;5071983;28;20049;-92
2022/03/19 02:34:53;;;;;;;17.73;5.70;;;;;;;7.06;100.00;103758.72;5072482;28;20040;-92
2022/03/19 02:37:21;;;;;;;18.58;4.68;;;;;;;7.19;100.00;103768.63;5073934;28;20508;-92
2022/03/19 02:39:48;;;;;;;23.30;4.75;;;;;;;7.41;100.00;103777.84;5073256;28;20055;-91
2022/03/19 02:42:17;;;;;;;19.55;4.55;;;;;;;7.46;100.00;103780.56;5073488;28;20053;-92
2022/03/19 02:44:45;;;;;;;15.00;4.03;;;;;;;6.94;100.00;103709.81;5073087;28;20230;-92
2022/03/19 02:47:12;;;;;;;20.17;4.40;;;;;;;7.33;100.00;103783.72;5072493;28;20052;-92
2022/03/19 02:49:39;;;;;;;20.33;4.35;;;;;;;6.96;100.00;103721.16;5072854;28;20059;-92
2022/03/19 02:52:06;;;;;;;14.77;4.47;;;;;;;7.17;100.00;103743.34;5068948;28;20177;-92
2022/03/19 02:54:33;;;;;;;17.38;4.00;;;;;;;7.08;100.00;103709.25;5052728;28;20414;-92
2022/03/19 02:57:00;;;;;;;21.45;5.38;;;;;;;7.40;100.00;103783.00;5052524;28;20059;-92
2022/03/19 02:59:31;;;;;;;25.00;5.45;;;;;;;7.34;100.00;103762.91;5054000;28;20479;-92
2022/03/19 03:02:04;;;;;;;16.98;3.90;;;;;;;6.56;100.00;103717.50;5063698;28;20739;-92
2022/03/19 03:04:32;;;;;;;17.67;4.40;;;;;;;6.91;100.00;103776.59;5076087;28;20062;-91
2022/03/19 03:07:01;;;;;;;15.38;3.78;;;;;;;6.97;100.00;103777.59;5075198;28;20049;-91
2022/03/19 03:09:29;;;;;;;14.90;3.78;;;;;;;6.76;100.00;103767.50;5074845;28;20479;-91
2022/03/19 03:11:58;;;;;;;19.00;5.47;;;;;;;6.97;100.00;103767.19;5074461;28;20506;-92
2022/03/19 03:14:26;;;;;;;18.83;4.93;;;;;;;7.04;100.00;103781.25;5075931;28;20150;-92
2022/03/19 03:16:53;;;;;;;19.80;5.60;;;;;;;6.93;100.00;103738.44;5076330;28;20128;-92
2022/03/19 03:19:21;;;;;;;15.40;4.13;;;;;;;6.85;100.00;103712.16;5076404;28;20048;-92
2022/03/19 03:21:47;;;;;;;19.42;4.85;;;;;;;6.96;100.00;103733.31;5076132;28;20054;-92
2022/03/19 03:24:15;;;;;;;16.17;4.82;;;;;;;7.16;100.00;103773.75;5076493;28;20392;-92
2022/03/19 03:26:43;;;;;;;20.63;5.30;;;;;;;7.19;100.00;103762.53;5077381;28;20044;-91
2022/03/19 03:29:10;;;;;;;13.65;4.15;;;;;;;7.04;100.00;103719.59;5076071;28;20055;-92
2022/03/19 03:31:37;;;;;;;13.93;4.93;;;;;;;7.40;100.00;103776.09;5076249;28;20076;-92
2022/03/19 03:34:04;;;;;;;23.20;4.82;;;;;;;7.09;100.00;103716.25;5076449;28;20152;-92
2022/03/19 03:36:31;;;;;;;17.95;5.63;;;;;;;7.27;100.00;103721.91;5075481;28;20128;-92
2022/03/19 03:38:58;;;;;;;14.23;3.50;;;;;;;7.20;100.00;103741.72;5075407;28;20143;-92
2022/03/19 03:41:25;;;;;;;17.73;3.78;;;;;;;7.15;100.00;103777.22;5074590;28;20080;-91
2022/03/19 03:43:52;;;;;;;17.98;5.22;;;;;;;7.19;100.00;103762.53;5075741;28;20061;-91
2022/03/19 03:46:18;;;;;;;22.02;4.38;;;;;;;7.03;100.00;103762.16;5074848;28;20045;-92
2022/03/19 03:48:45;;;;;;;19.20;4.28;;;;;;;6.92;100.00;103760.09;5074489;28;20056;-91
2022/03/19 03:51:13;;;;;;;15.68;4.15;;;;;;;7.20;100.00;103767.78;5075382;28;20120;-91
2022/03/19 03:53:42;;;;;;;15.32;4.50;;;;;;;6.98;100.00;103771.56;5074953;28;20048;-91
2022/03/19 03:56:09;;;;;;;17.52;4.57;;;;;;;6.76;100.00;103727.56;5074448;28;20051;-91
2022/03/19 03:58:37;;;;;;;10.80;3.72;;;;;;;6.86;100.00;103719.16;5073930;28;20044;-91
2022/03/19 04:01:04;;;;;;;18.90;4.45;;;;;;;7.19;100.00;103741.69;5073280;28;20052;-90
2022/03/19 04:03:31;;;;;;;19.00;6.40;;;;;;;6.83;100.00;103706.94;5073841;28;20086;-91
2022/03/19 04:05:58;;;;;;;23.15;5.18;;;;;;;7.02;100.00;103710.00;5074078;28;20047;-91
2022/03/19 04:08:24;;;;;;;26.70;4.60;;;;;;;6.85;100.00;103704.34;5075026;28;20052;-91
2022/03/19 04:10:51;;;;;;;32.20;7.28;;;;;;;7.09;100.00;103717.13;5073977;28;20049;-91
2022/03/19 04:13:18;;;;;;;18.67;5.30;;;;;;;7.18;100.00;103740.78;5074330;28;20052;-91
2022/03/19 04:15:45;;;;;;;14.50;4.15;;;;;;;7.04;100.00;103747.38;5073681;28;20138;-91
2022/03/19 04:18:15;;;;;;;19.05;4.68;;;;;;;7.14;100.00;103745.91;5073621;28;20133;-90
2022/03/19 04:20:42;;;;;;;18.25;4.90;;;;;;;7.06;100.00;103722.25;5073810;28;20387;-91
2022/03/19 04:23:09;;;;;;;26.38;4.72;;;;;;;7.11;100.00;103743.22;5073272;28;20052;-91
2022/03/19 04:25:36;;;;;;;19.55;5.55;;;;;;;7.04;100.00;103750.88;5074355;28;20418;-90
2022/03/19 04:28:03;;;;;;;16.30;4.70;;;;;;;7.01;100.00;103739.47;5073585;28;20056;-91
2022/03/19 04:30:30;;;;;;;19.50;4.60;;;;;;;6.84;100.00;103750.34;5074490;28;20088;-90
2022/03/19 04:33:02;;;;;;;29.98;6.25;;;;;;;6.92;100.00;103760.97;5074071;28;20052;-91
2022/03/19 04:38:17;;;;;;;21.65;5.13;;;;;;;7.14;100.00;103769.38;5075355;28;20494;-91
2022/03/19 04:40:46;;;;;;;26.67;5.18;;;;;;;6.96;100.00;103769.78;5073811;28;20052;-89
2022/03/19 04:43:13;;;;;;;26.08;5.15;;;;;;;6.94;100.00;103777.53;5072545;28;20060;-90
2022/03/19 04:45:41;;;;;;;24.48;5.32;;;;;;;6.99;100.00;103769.84;5074778;28;20087;-91
2022/03/19 04:48:09;;;;;;;19.80;4.63;;;;;;;7.11;100.00;103767.53;5072581;28;20060;-90
2022/03/19 04:50:41;;;;;;;20.15;6.10;;;;;;;7.04;100.00;103763.03;5089151;28;20467;-91
2022/03/19 04:53:08;;;;;;;36.38;8.70;;;;;;;6.91;100.00;103760.97;5072110;28;20112;-91
2022/03/19 04:55:37;;;;;;;21.98;5.75;;;;;;;6.99;100.00;103757.72;5073669;28;20051;-91
2022/03/19 04:58:04;;;;;;;22.65;7.32;;;;;;;6.93;100.00;103780.97;5073795;28;20143;-91
2022/03/19 05:00:32;;;;;;;22.33;7.15;;;;;;;7.06;100.00;103776.97;5073512;28;20052;-89
2022/03/19 05:03:07;;;;;;;23.60;5.78;;;;;;;6.80;100.00;103737.25;5071217;28;20098;-90
2022/03/19 05:05:34;;;;;;;26.48;7.05;;;;;;;6.85;100.00;103748.63;5072492;28;20051;-91
2022/03/19 05:08:03;;;;;;;24.67;5.35;;;;;;;7.07;100.00;103770.94;5073427;28;20163;-90
2022/03/19 05:13:17;;;;;;;17.85;5.28;;;;;;;6.97;100.00;103750.69;5056789;28;20394;-90
2022/03/19 05:15:45;;;;;;;17.35;4.93;;;;;;;7.14;100.00;103777.19;5053651;28;20092;-90
2022/03/19 05:18:11;;;;;;;18.50;4.00;;;;;;;7.17;100.00;103772.03;5053661;28;20106;-90
2022/03/19 05:20:38;;;;;;;21.70;5.72;;;;;;;6.98;100.00;103771.56;5053662;28;20051;-91
2022/03/19 05:23:06;;;;;;;18.52;5.13;;;;;;;6.97;100.00;103750.69;5069188;28;20052;-91
2022/03/19 05:25:33;;;;;;;21.27;6.40;;;;;;;6.93;100.00;103762.75;5072859;28;20048;-91
2022/03/19 05:28:00;;;;;;;19.15;5.57;;;;;;;6.92;100.00;103760.97;5072605;28;20052;-90
2022/03/19 05:30:47;;;;;;;24.15;6.15;;;;;;;7.02;100.00;103760.38;5072856;28;20049;-91
2022/03/19 05:33:15;;;;;;;27.15;6.35;;;;;;;7.19;100.00;103752.13;5072509;28;20163;-91
2022/03/19 05:35:42;;;;;;;24.63;6.75;;;;;;;7.15;100.00;103758.06;5074558;28;20045;-91
2022/03/19 05:38:09;;;;;;;21.20;6.88;;;;;;;7.21;100.00;103772.16;5072320;28;20060;-91
2022/03/19 05:40:36;;;;;;;20.80;7.13;;;;;;;6.89;100.00;103713.13;5072918;28;20047;-90
2022/03/19 05:43:03;;;;;;;27.00;7.28;;;;;;;7.02;100.00;103747.34;5072215;28;20051;-90
2022/03/19 05:45:30;;;;;;;24.58;6.45;;;;;;;7.11;100.00;103756.25;5073118;28;20402;-91
2022/03/19 05:47:57;;;;;;;28.63;7.63;;;;;;;7.09;100.00;103761.41;5072635;28;20410;-90
2022/03/19 05:50:23;;;;;;;20.83;7.07;;;;;;;7.10;100.00;103752.78;5074216;28;20142;-90
2022/03/19 05:52:50;;;;;;;21.00;5.97;;;;;;;6.86;100.00;103726.09;5073245;28;20443;-91
2022/03/19 05:55:17;;;;;;;17.05;6.45;;;;;;;7.03;100.00;103780.38;5072570;28;20150;-91
2022/03/19 05:57:44;;;;;;;23.80;6.65;;;;;;;6.82;100.00;103745.97;5073892;28;20083;-91
2022/03/19 06:00:11;;;;;;;22.67;6.47;;;;;;;6.92;100.00;103745.34;5074107;28;20040;-91
2022/03/19 06:02:41;;;;;;;20.88;7.40;;;;;;;6.74;100.00;103750.94;5072619;28;20087;-91
2022/03/19 06:05:09;;;;;;;25.02;6.90;;;;;;;6.94;100.00;103755.81;5072957;28;20048;-91
2022/03/19 06:07:36;;;;;;;28.38;9.30;;;;;;;6.90;100.00;103756.56;5072534;28;20048;-91
2022/03/19 06:10:05;;;;;;;19.85;6.82;;;;;;;6.81;100.00;103718.16;5071660;28;20098;-91
2022/03/19 06:12:33;;;;;;;32.58;9.60;;;;;;;7.10;100.00;103767.50;5061353;28;20063;-90
2022/03/19 06:15:00;;;;;;;33.70;10.43;;;;;;;7.08;100.00;103770.06;5076623;28;20049;-90
2022/03/19 06:17:26;;;;;;;26.20;8.43;;;;;;;7.15;100.00;103734.63;5067775;28;20139;-90
2022/03/19 06:19:54;;;;;;;30.05;9.90;;;;;;;6.98;100.00;103749.84;5064164;28;20059;-90
2022/03/19 06:22:23;;;;;;;32.28;9.23;;;;;;;7.08;100.00;103756.16;5068244;28;20185;-90
2022/03/19 06:24:50;;;;;;;26.85;8.95;;;;;;;7.30;100.00;103786.25;5055602;28;20048;-90
2022/03/19 06:27:17;;;;;;;30.95;8.18;;;;;;;7.20;100.00;103744.31;5068260;28;20549;-90
2022/03/19 06:29:43;;;;;;;38.20;11.45;;;;;;;7.31;100.00;103788.00;5065281;28;20075;-90
2022/03/19 06:32:10;;;;;;;28.35;8.52;;;;;;;7.50;100.00;103785.00;5068810;28;20060;-90
2022/03/19 06:34:37;;;;;;;38.72;10.77;;;;;;;7.45;100.00;103783.13;5065081;28;20048;-90
2022/03/19 06:37:22;;;;;;;37.70;12.23;;;;;;;7.48;100.00;103784.09;5063459;28;20052;-90
2022/03/19 06:39:54;;;;;;;65.03;15.25;;;;;;;7.38;100.00;103801.25;5074866;28;20049;-90
2022/03/19 06:42:22;;;;;;;26.38;8.57;;;;;;;7.50;100.00;103799.78;5070627;28;20128;-90
2022/03/19 06:44:49;;;;;;;25.77;8.57;;;;;;;7.74;100.00;103796.88;5071790;28;20899;-90
2022/03/19 06:47:16;;;;;;;23.67;7.70;;;;;;;7.92;100.00;103793.81;5068521;28;20475;-90
2022/03/19 06:49:43;;;;;;;27.25;7.68;;;;;;;7.76;100.00;103771.72;5068003;28;20064;-90
2022/03/19 06:52:10;;;;;;;42.45;11.65;;;;;;;7.59;100.00;103787.81;5067819;28;20049;-90
2022/03/19 06:54:37;;;;;;;30.23;7.80;;;;;;;7.90;100.00;103800.72;5067822;28;20403;-90
2022/03/19 06:57:04;;;;;;;41.58;10.70;;;;;;;7.89;100.00;103791.13;5069938;28;20666;-90
2022/03/19 06:59:31;;;;;;;31.92;9.13;;;;;;;7.95;100.00;103793.84;5073745;28;20203;-91
2022/03/19 07:01:59;;;;;;;25.35;7.47;;;;;;;7.98;100.00;103796.53;5060626;28;20410;-90
2022/03/19 07:04:26;;;;;;;31.42;10.98;;;;;;;7.88;100.00;103792.84;5065360;28;20560;-89
2022/03/19 07:06:53;;;;;;;27.35;9.45;;;;;;;7.91;100.00;103792.03;5068362;28;20049;-91
2022/03/19 07:09:28;;;;;;;38.58;9.13;;;;;;;7.90;100.00;103791.16;5062973;28;20426;-91
2022/03/19 07:11:55;;;;;;;23.23;7.20;;;;;;;7.96;100.00;103777.38;5058525;28;20053;-91
2022/03/19 07:14:22;;;;;;;35.88;13.13;;;;;;;7.76;100.00;103758.66;5070297;28;20052;-90
2022/03/19 07:16:51;;;;;;;24.55;7.20;;;;;;;8.22;100.00;103774.44;5061904;28;20041;-90
2022/03/19 07:19:18;;;;;;;26.92;8.90;;;;;;;8.41;100.00;103753.09;5062477;28;20143;-90
2022/03/19 07:21:45;;;;;;;22.75;6.53;;;;;;;8.55;100.00;103741.22;5070321;28;20049;-90
2022/03/19 07:24:12;;;;;;;35.35;9.55;;;;;;;9.08;100.00;103766.53;5065105;28;20465;-90
2022/03/19 07:26:38;;;;;;;30.35;8.50;;;;;;;9.47;100.00;103804.66;5065591;28;20049;-89
2022/03/19 07:29:05;;;;;;;38.22;11.15;;;;;;;8.98;100.00;103779.41;5063169;28;20075;-90
2022/03/19 07:31:32;;;;;;;30.67;8.45;;;;;;;9.36;100.00;103747.81;5071736;28;20050;-90
2022/03/19 07:33:59;;;;;;;37.17;10.35;;;;;;;9.55;100.00;103791.69;5069585;28;20049;-89
2022/03/19 07:36:26;;;;;;;23.30;8.00;;;;;;;9.63;100.00;103800.56;5072512;28;20048;-90
2022/03/19 07:38:53;;;;;;;28.50;8.43;;;;;;;9.61;100.00;103806.59;5060808;28;20055;-90
2022/03/19 07:44:05;;;;;;;30.02;8.30;;;;;;;9.89;100.00;103807.91;5061283;28;20048;-90
2022/03/19 07:46:34;;;;;;;34.50;9.63;;;;;;;9.59;100.00;103784.78;5068367;28;20458;-90
2022/03/19 07:49:02;;;;;;;23.15;6.75;;;;;;;10.05;100.00;103820.34;5061232;28;20163;-90
2022/03/19 07:51:29;;;;;;;18.20;5.70;;;;;;;10.29;100.00;103807.53;5063476;28;20049;-90
2022/03/19 07:53:56;;;;;;;43.40;10.40;;;;;;;9.83;100.00;103813.94;5064531;28;20050;-91
2022/03/19 07:56:24;;;;;;;31.65;8.65;;;;;;;10.12;100.00;103805.59;5069417;28;20739;-91
2022/03/19 07:58:51;;;;;;;27.33;7.40;;;;;;;9.93;100.00;103814.06;5064277;28;20040;-90
2022/03/19 08:01:19;;;;;;;23.25;8.27;;;;;;;9.88;100.00;103814.88;5069631;28;20098;-89
2022/03/19 08:03:47;;;;;;;28.85;7.55;;;;;;;9.87;100.00;103805.25;5064081;28;20131;-90
2022/03/19 08:06:14;;;;;;;21.60;5.93;;;;;;;10.14;100.00;103816.09;5064306;28;20049;-91
2022/03/19 08:08:41;;;;;;;34.72;9.98;;;;;;;10.31;100.00;103835.56;5066050;28;20055;-90
2022/03/19 08:11:09;;;;;;;29.67;7.80;;;;;;;10.19;100.00;103820.53;5067979;28;20048;-90
2022/03/19 08:13:36;;;;;;;32.90;9.75;;;;;;;10.30;100.00;103820.66;5062156;28;20084;-90
2022/03/19 08:16:03;;;;;;;32.35;8.55;;;;;;;10.13;100.00;103816.94;5065902;28;20053;-90
2022/03/19 08:18:30;;;;;;;29.90;8.77;;;;;;;9.86;100.00;103816.59;5079640;28;20052;-89
2022/03/19 08:20:58;;;;;;;25.92;8.40;;;;;;;10.13;100.00;103828.31;5071112;28;20045;-90
2022/03/19 08:23:25;;;;;;;28.38;8.57;;;;;;;10.22;100.00;103817.94;5062452;28;20044;-91
2022/03/19 08:25:52;;;;;;;38.75;9.13;;;;;;;9.77;100.00;103819.03;5070686;28;20117;-91
2022/03/19 08:28:19;;;;;;;25.25;7.13;;;;;;;10.26;100.00;103826.72;5065299;28;20048;-91
2022/03/19 08:30:45;;;;;;;29.92;7.43;;;;;;;10.32;100.00;103816.34;5056013;28;20162;-90
2022/03/19 08:33:12;;;;;;;23.25;6.78;;;;;;;10.27;100.00;103823.25;5064382;28;20045;-89
2022/03/19 08:35:39;;;;;;;31.27;8.82;;;;;;;9.55;100.00;103816.97;5064759;28;20053;-89
2022/03/19 08:40:51;;;;;;;24.35;7.88;;;;;;;10.55;100.00;103816.66;5065079;28;20107;-90
2022/03/19 08:43:18;;;;;;;27.70;8.40;;;;;;;9.95;100.00;103814.94;5067589;28;20131;-88
2022/03/19 08:45:45;;;;;;;32.80;9.35;;;;;;;10.36;100.00;103809.44;5068951;28;20044;-89
2022/03/19 08:48:13;;;;;;;33.35;8.45;;;;;;;10.72;100.00;103808.09;5070207;28;20049;-91
2022/03/19 08:50:40;;;;;;;31.52;8.68;;;;;;;10.10;100.00;103804.69;5057411;28;20055;-91
2022/03/19 08:53:07;;;;;;;31.10;9.52;;;;;;;10.61;100.00;103821.97;5073484;28;20063;-92
2022/03/19 08:55:33;;;;;;;27.75;7.68;;;;;;;10.57;100.00;103806.16;5074109;28;20116;-92
2022/03/19 08:58:00;;;;;;;23.17;7.88;;;;;;;10.82;100.00;103829.19;5072751;28;20044;-93
2022/03/19 09:00:27;;;;;;;24.92;7.25;;;;;;;10.79;100.00;103812.53;5073467;28;20059;-91
2022/03/19 09:02:55;;;;;;;27.17;8.25;;;;;;;10.45;100.00;103827.88;5070876;28;20409;-91
2022/03/19 09:05:22;;;;;;;29.42;8.68;;;;;;;10.72;100.00;103823.81;5055596;28;20049;-90
2022/03/19 09:07:49;;;;;;;26.20;7.65;;;;;;;11.04;100.00;103818.03;5062777;28;20048;-89
2022/03/19 09:10:16;;;;;;;24.52;8.63;;;;;;;11.21;100.00;103821.69;5072885;28;20056;-90
2022/03/19 09:12:43;;;;;;;25.45;7.85;;;;;;;11.38;100.00;103825.34;5070882;28;20479;-89
2022/03/19 09:15:12;;;;;;;33.03;8.20;;;;;;;11.06;100.00;103819.78;5071675;28;20757;-87
2022/03/19 09:17:40;;;;;;;27.50;8.25;;;;;;;10.67;100.00;103800.19;5071386;28;20072;-87
2022/03/19 09:20:10;;;;;;;41.92;10.07;;;;;;;10.80;100.00;103848.34;5070890;28;20049;-87
2022/03/19 09:22:37;;;;;;;25.08;8.60;;;;;;;10.72;100.00;103822.06;5066973;28;20475;-87
2022/03/19 09:25:05;;;;;;;31.05;8.32;;;;;;;10.97;100.00;103783.00;5056612;28;20053;-88
2022/03/19 09:27:32;;;;;;;31.10;9.43;;;;;;;10.60;100.00;103820.19;5066895;28;20124;-88
2022/03/19 09:29:59;;;;;;;26.38;8.73;;;;;;;10.62;100.00;103820.22;5070217;28;20041;-87
2022/03/19 09:32:26;;;;;;;26.42;8.73;;;;;;;10.77;100.00;103833.50;5059915;28;20059;-88
2022/03/19 09:34:53;;;;;;;24.13;7.45;;;;;;;11.20;100.00;103809.44;5061498;28;20078;-86
2022/03/19 09:37:20;;;;;;;29.08;7.22;;;;;;;11.31;100.00;103820.91;5065333;28;20086;-88
2022/03/19 09:39:49;;;;;;;28.05;8.35;;;;;;;11.14;100.00;103828.63;5065693;28;20127;-88
2022/03/19 09:42:16;;;;;;;29.38;9.15;;;;;;;11.35;100.00;103820.06;5067438;28;20064;-88
2022/03/19 09:44:43;;;;;;;33.33;9.05;;;;;;;11.01;100.00;103795.28;5066890;28;20048;-88
2022/03/19 09:47:12;;;;;;;26.52;8.82;;;;;;;11.13;100.00;103825.97;5063543;28;20049;-88
2022/03/19 09:49:39;;;;;;;24.02;6.32;;;;;;;11.20;100.00;103818.19;5063295;28;20068;-88
2022/03/19 09:52:06;;;;;;;24.13;7.40;;;;;;;11.25;100.00;103817.38;5067828;28;20056;-87
2022/03/19 09:54:33;;;;;;;34.38;9.82;;;;;;;10.73;100.00;103825.56;5069142;28;20056;-88
2022/03/19 09:57:00;;;;;;;30.75;8.55;;;;;;;11.33;100.00;103806.06;5064796;28;20048;-88
2022/03/19 09:59:27;;;;;;;38.25;8.25;;;;;;;11.57;100.00;103815.84;5066645;28;20044;-87
2022/03/19 10:01:55;;;;;;;26.95;6.68;;;;;;;11.65;100.00;103804.53;5058223;28;20441;-87
2022/03/19 10:04:22;;;;;;;25.25;6.80;;;;;;;12.41;100.00;103819.00;5061602;28;20684;-88
2022/03/19 10:09:45;;;;;;;24.90;6.45;;;;;;;11.75;100.00;103807.22;5065268;28;20461;-87
2022/03/19 10:12:20;;;;;;;33.75;6.80;;;;;;;11.23;100.00;103792.88;5059215;28;20075;-87
2022/03/19 10:14:53;;;;;;;21.35;5.18;;;;;;;11.61;100.00;103802.78;5065702;28;20051;-88
2022/03/19 10:17:34;;;;;;;22.65;5.22;;;;;;;11.51;100.00;103810.59;5075743;28;20096;-88
2022/03/19 10:20:06;;;;;;;19.95;4.32;;;;;;;11.45;100.00;103842.00;5071625;28;20047;-88
2022/03/19 10:22:34;;;;;;;17.75;4.38;;;;;;;11.45;100.00;103812.28;5067349;28;20056;-88
2022/03/19 10:25:06;;;;;;;26.15;4.80;;;;;;;11.52;100.00;103814.94;5071840;28;20053;-87
2022/03/19 10:27:35;;;;;;;23.17;5.30;;;;;;;11.74;100.00;103818.63;5077086;28;20086;-88
2022/03/19 10:30:16;;;;;;;34.60;5.72;;;;;;;12.04;100.00;103824.97;5070537;28;20040;-88
2022/03/19 10:32:49;;;;;;;35.15;5.25;;;;;;;11.66;100.00;103835.19;5075821;28;20060;-88
2022/03/19 10:35:25;;;;;;;23.52;6.65;;;;;;;11.74;100.00;103826.50;5070994;28;20056;-88
2022/03/19 10:37:53;;;;;;;23.55;4.55;;;;;;;12.08;100.00;103837.22;5063488;28;20124;-88
2022/03/19 10:40:21;;;;;;;26.52;6.03;;;;;;;11.66;100.00;103815.06;5065693;28;20491;-88
2022/03/19 10:42:55;;;;;;;18.33;4.88;;;;;;;11.80;100.00;103816.91;5062631;28;20067;-89
2022/03/19 10:45:23;;;;;;;25.75;5.03;;;;;;;11.70;100.00;103815.94;5068303;28;20150;-89
2022/03/19 10:47:49;;;;;;;26.40;5.15;;;;;;;12.20;100.00;103819.78;5067183;28;20044;-89
2022/03/19 10:50:22;;;;;;;30.25;5.50;;;;;;;11.90;100.00;103796.00;5063701;28;20079;-88
2022/03/19 10:52:51;;;;;;;25.77;5.82;;;;;;;11.58;100.00;103825.50;5062344;28;20044;-89
2022/03/19 10:55:19;;;;;;;23.38;5.10;;;;;;;12.13;100.00;103816.25;5069112;28;20052;-90
2022/03/19 10:57:46;;;;;;;24.10;5.40;;;;;;;11.59;100.00;103802.75;5063247;28;20044;-89
2022/03/19 11:00:16;;;;;;;27.58;5.45;;;;;;;11.90;100.00;103824.88;5068558;28;20053;-88
2022/03/19 11:02:45;;;;;;;24.63;5.35;;;;;;;11.52;100.00;103822.81;5066967;28;20055;-89
2022/03/19 11:05:19;;;;;;;22.02;4.82;;;;;;;11.89;100.00;103801.19;5069360;28;20076;-88
2022/03/19 11:07:46;;;;;;;34.35;6.85;;;;;;;11.87;100.00;103808.19;5059889;28;20132;-88
2022/03/19 11:10:14;;;;;;;27.98;4.80;;;;;;;11.65;100.00;103800.19;5059495;28;20070;-89
2022/03/19 11:12:50;;;;;;;19.55;5.00;;;;;;;11.87;100.00;103808.19;5067984;28;20068;-87
2022/03/19 11:15:22;;;;;;;33.10;5.50;;;;;;;11.96;100.00;103779.38;5067895;28;20059;-89
2022/03/19 11:17:50;;;;;;;26.25;4.43;;;;;;;11.96;100.00;103787.28;5066794;28;20040;-89
2022/03/19 11:20:17;;;;;;;23.38;5.05;;;;;;;12.30;100.00;103804.06;5062902;28;20052;-88
2022/03/19 11:22:54;;;;;;;28.02;5.47;;;;;;;12.78;100.00;103801.56;5065359;28;20048;-89
2022/03/19 11:25:27;;;;;;;29.38;5.70;;;;;;;12.32;100.00;103812.84;5066862;28;20053;-88
2022/03/19 11:28:09;;;;;;;25.73;4.25;;;;;;;12.23;100.00;103793.53;5076865;28;20057;-89
2022/03/19 11:30:46;;;;;;;28.73;4.95;;;;;;;12.22;100.00;103802.28;5066489;28;20131;-89
2022/03/19 11:33:18;;;;;;;27.88;5.65;;;;;;;12.35;100.00;103799.69;5065719;28;20045;-89
2022/03/19 11:36:04;;;;;;;29.88;5.82;;;;;;;12.14;100.00;103796.97;5062933;28;20132;-89